Time;durP1;ratioP1;P1;durP2;ratioP2;P2;SDS_P1;SDS_P2;PMS_P1;PMS_P2;Temp;Humidity;BMP_temperature;BMP_pressure;BME280_temperature;BME280_humidity;BME280_pressure;Samples;Min_cycle;Max_cycle;Signal;HPM_P1;HPM_P2
2022/03/20 00:01:17;;;;;;;42.53;21.95;;;2.30;99.90;;;;;;5033031;28;20093;-90
2022/03/20 00:04:21;;;;;;;45.97;21.83;;;2.20;99.90;;;;;;5032828;28;20120;-90
2022/03/20 00:06:47;;;;;;;41.85;21.50;;;2.30;99.90;;;;;;5033047;28;20022;-90
2022/03/20 00:09:12;;;;;;;43.42;21.23;;;2.30;99.90;;;;;;5016277;28;20037;-91
2022/03/20 00:11:54;;;;;;;45.47;20.77;;;2.30;99.90;;;;;;5032975;28;20022;-91
2022/03/20 00:14:20;;;;;;;45.70;21.30;;;2.30;99.90;;;;;;5018837;28;20068;-91
2022/03/20 00:16:45;;;;;;;52.92;22.42;;;2.20;99.90;;;;;;5051510;28;20032;-90
2022/03/20 00:19:46;;;;;;;47.85;21.77;;;2.20;99.90;;;;;;5035089;28;20025;-91
2022/03/20 00:22:14;;;;;;;54.15;22.40;;;2.20;99.90;;;;;;5051321;28;20049;-90
2022/03/20 00:24:54;;;;;;;44.85;23.33;;;2.30;99.90;;;;;;5051808;28;20419;-91
2022/03/20 00:27:20;;;;;;;39.28;20.88;;;2.30;99.90;;;;;;5039115;28;20025;-92
2022/03/20 00:29:50;;;;;;;40.38;19.75;;;2.40;99.90;;;;;;5034868;28;20621;-92
2022/03/20 00:32:16;;;;;;;47.10;20.60;;;2.50;99.90;;;;;;5034897;28;20025;-91
2022/03/20 00:34:59;;;;;;;42.50;20.80;;;2.50;99.90;;;;;;5052762;28;20424;-90
2022/03/20 00:37:27;;;;;;;43.45;20.65;;;2.50;99.90;;;;;;5034395;28;20028;-90
2022/03/20 00:40:07;;;;;;;46.08;20.95;;;2.50;99.90;;;;;;5051364;28;20064;-91
2022/03/20 00:42:33;;;;;;;45.08;21.58;;;2.50;99.90;;;;;;5034793;28;20032;-91
2022/03/20 00:44:58;;;;;;;42.28;19.90;;;2.50;99.90;;;;;;5035923;28;20021;-91
2022/03/20 00:47:24;;;;;;;44.28;21.45;;;2.50;99.90;;;;;;5025076;28;20397;-91
2022/03/20 00:49:49;;;;;;;51.13;22.73;;;2.40;99.90;;;;;;5018425;28;20084;-90
2022/03/20 00:52:43;;;;;;;42.70;21.23;;;2.50;99.90;;;;;;5018339;28;20397;-91
2022/03/20 00:55:09;;;;;;;43.65;21.60;;;2.50;99.90;;;;;;5018778;28;20389;-91
2022/03/20 00:57:34;;;;;;;40.70;21.48;;;2.50;99.90;;;;;;5018562;28;20124;-91
2022/03/20 01:00:04;;;;;;;46.40;22.90;;;2.40;99.90;;;;;;5034997;28;20022;-91
2022/03/20 01:02:36;;;;;;;38.75;20.00;;;2.40;99.90;;;;;;5023108;28;20059;-91
2022/03/20 01:05:02;;;;;;;40.17;21.15;;;2.30;99.90;;;;;;5038144;28;20183;-92
2022/03/20 01:07:59;;;;;;;39.88;20.75;;;2.30;99.90;;;;;;5026460;28;20044;-90
2022/03/20 01:10:25;;;;;;;39.20;20.83;;;2.30;99.90;;;;;;5037896;28;20098;-89
2022/03/20 01:12:50;;;;;;;36.92;19.10;;;2.30;99.90;;;;;;5054184;28;20021;-90
2022/03/20 01:15:42;;;;;;;47.97;21.10;;;2.20;99.90;;;;;;5028739;28;20381;-90
2022/03/20 01:18:07;;;;;;;46.30;22.55;;;2.20;99.90;;;;;;5035525;28;20025;-91
2022/03/20 01:20:33;;;;;;;43.05;21.35;;;2.10;99.90;;;;;;5017974;28;20029;-91
2022/03/20 01:23:08;;;;;;;46.80;23.52;;;2.00;99.90;;;;;;5034235;28;20021;-90
2022/03/20 01:25:34;;;;;;;39.58;21.27;;;1.90;99.90;;;;;;5034327;28;20025;-91
2022/03/20 01:28:26;;;;;;;40.85;22.67;;;1.80;99.90;;;;;;5017988;28;20489;-91
2022/03/20 01:30:59;;;;;;;47.67;22.35;;;1.70;99.90;;;;;;5047303;28;20493;-92
2022/03/20 01:33:25;;;;;;;48.97;23.73;;;1.60;99.90;;;;;;5058127;28;20124;-92
2022/03/20 01:36:03;;;;;;;48.17;23.98;;;1.50;99.90;;;;;;5075541;28;20441;-91
2022/03/20 01:38:29;;;;;;;42.15;22.17;;;1.40;99.90;;;;;;5057351;28;20074;-89
2022/03/20 01:41:03;;;;;;;41.03;20.90;;;1.30;99.90;;;;;;5057176;28;20032;-89
2022/03/20 01:43:28;;;;;;;39.15;21.23;;;1.20;99.90;;;;;;5057001;28;20067;-89
2022/03/20 01:46:04;;;;;;;40.28;22.50;;;1.10;99.90;;;;;;5056967;28;20496;-89
2022/03/20 01:48:29;;;;;;;45.97;21.42;;;1.00;99.90;;;;;;5056751;28;20024;-89
2022/03/20 01:50:55;;;;;;;45.25;22.88;;;1.00;99.90;;;;;;5074704;28;20080;-89
2022/03/20 01:53:51;;;;;;;48.58;24.40;;;0.90;99.90;;;;;;5074285;28;20056;-89
2022/03/20 01:56:18;;;;;;;;;;;0.90;99.90;;;;;;5074000;28;20033;-89
2022/03/20 01:58:43;;;;;;;43.80;23.52;;;0.80;99.90;;;;;;5073607;28;19923;-90
2022/03/20 02:01:12;;;;;;;45.47;24.45;;;0.80;99.90;;;;;;5074766;28;20464;-90
2022/03/20 02:03:38;;;;;;;55.05;26.40;;;0.80;99.90;;;;;;5056610;28;20032;-90
2022/03/20 02:06:05;;;;;;;44.50;23.50;;;0.70;99.90;;;;;;5056671;28;20032;-90
2022/03/20 02:09:06;;;;;;;49.42;25.50;;;0.70;99.90;;;;;;5056815;28;20107;-90
2022/03/20 02:11:33;;;;;;;53.00;25.55;;;0.70;99.90;;;;;;5074469;28;20087;-89
2022/03/20 02:14:10;;;;;;;45.55;23.27;;;0.60;99.90;;;;;;5074544;28;20028;-89
2022/03/20 02:16:38;;;;;;;50.22;24.88;;;0.60;99.90;;;;;;5074282;28;20499;-89
2022/03/20 02:19:18;;;;;;;54.25;24.17;;;0.60;99.90;;;;;;5073428;28;20492;-89
2022/03/20 02:21:46;;;;;;;52.22;24.60;;;0.70;99.90;;;;;;5056348;28;20545;-91
2022/03/20 02:24:41;;;;;;;48.38;22.88;;;0.60;99.90;;;;;;5072894;28;20055;-89
2022/03/20 02:27:16;;;;;;;54.50;25.20;;;0.60;99.90;;;;;;5056299;28;20021;-90
2022/03/20 02:29:44;;;;;;;51.65;26.35;;;0.50;99.90;;;;;;5049549;28;20536;-92
2022/03/20 02:32:12;;;;;;;53.92;25.35;;;0.50;99.90;;;;;;5059943;28;20427;-91
2022/03/20 02:34:56;;;;;;;61.85;27.75;;;0.60;99.90;;;;;;5076526;28;20028;-91
2022/03/20 02:37:24;;;;;;;53.50;26.33;;;0.60;99.90;;;;;;5076244;28;20063;-90
2022/03/20 02:39:53;;;;;;;52.45;25.48;;;0.50;99.90;;;;;;5076410;28;20024;-90
2022/03/20 02:42:37;;;;;;;50.20;24.90;;;0.50;99.90;;;;;;5076526;28;20034;-91
2022/03/20 02:45:36;;;;;;;44.40;24.77;;;0.40;99.90;;;;;;5073070;28;20470;-91
2022/03/20 02:48:04;;;;;;;57.42;24.92;;;0.40;99.90;;;;;;5056424;28;20028;-91
2022/03/20 02:50:35;;;;;;;48.17;24.42;;;0.30;99.90;;;;;;5056334;28;20025;-91
2022/03/20 02:53:19;;;;;;;52.42;25.38;;;0.20;99.90;;;;;;5056227;28;20020;-90
2022/03/20 02:55:45;;;;;;;54.88;28.45;;;0.20;99.90;;;;;;5079400;28;20062;-91
2022/03/20 03:02:13;;;;;;;61.92;29.92;;;0.10;99.90;;;;;;5093976;28;20046;-90
2022/03/20 03:04:41;;;;;;;54.55;27.85;;;0.20;99.90;;;;;;5092632;28;20119;-90
2022/03/20 03:07:10;;;;;;;58.40;28.50;;;0.10;99.90;;;;;;5075367;28;20045;-90
2022/03/20 03:12:31;;;;;;;58.58;25.23;;;0.10;99.90;;;;;;5093668;28;20027;-91
2022/03/20 03:17:48;;;;;;;60.15;27.08;;;0.00;99.90;;;;;;5093967;28;20462;-90
2022/03/20 03:20:14;;;;;;;55.08;28.20;;;-0.10;99.90;;;;;;5093612;28;20466;-91
2022/03/20 03:22:40;;;;;;;52.78;27.98;;;-0.10;99.90;;;;;;5075320;28;20028;-92
2022/03/20 03:25:14;;;;;;;53.88;27.08;;;-0.20;99.90;;;;;;5075444;28;20032;-91
2022/03/20 03:27:40;;;;;;;55.80;26.77;;;-0.20;99.90;;;;;;5075329;28;20034;-90
2022/03/20 03:30:08;;;;;;;50.00;25.25;;;-0.20;99.90;;;;;;5090386;28;20491;-90
2022/03/20 03:32:34;;;;;;;56.58;28.67;;;-0.20;99.90;;;;;;5075071;28;20031;-91
2022/03/20 03:37:51;;;;;;;57.22;26.63;;;-0.20;99.90;;;;;;5096245;28;20542;-89
2022/03/20 03:40:16;;;;;;;56.05;27.98;;;-0.20;99.90;;;;;;5092016;28;20073;-89
2022/03/20 03:42:58;;;;;;;56.03;28.45;;;-0.20;99.90;;;;;;5074916;28;20020;-89
2022/03/20 03:45:25;;;;;;;69.90;30.17;;;-0.20;99.90;;;;;;5075092;28;20073;-89
2022/03/20 03:48:12;;;;;;;56.13;29.30;;;-0.20;99.90;;;;;;5093237;28;20460;-91
2022/03/20 03:50:40;;;;;;;65.65;29.88;;;-0.30;99.90;;;;;;5075421;28;20032;-90
2022/03/20 03:53:21;;;;;;;53.17;28.63;;;-0.30;99.90;;;;;;5075153;28;20016;-90
2022/03/20 03:55:46;;;;;;;56.30;27.30;;;-0.30;99.90;;;;;;5075015;28;20020;-90
2022/03/20 03:58:17;;;;;;;56.95;27.92;;;-0.40;99.90;;;;;;5091615;28;20017;-90
2022/03/20 04:00:43;;;;;;;68.38;29.63;;;-0.30;99.90;;;;;;5074928;28;20024;-89
2022/03/20 04:03:18;;;;;;;64.25;30.10;;;-0.40;99.90;;;;;;5074483;28;20020;-90
2022/03/20 04:05:43;;;;;;;55.95;29.70;;;-0.40;99.90;;;;;;5074241;28;20032;-89
2022/03/20 04:08:09;;;;;;;64.38;29.33;;;-0.50;99.90;;;;;;5093163;28;20476;-89
2022/03/20 04:11:12;;;;;;;51.13;27.70;;;-0.50;99.90;;;;;;5092843;28;20488;-90
2022/03/20 04:13:37;;;;;;;61.15;28.98;;;-0.50;99.90;;;;;;5091430;28;20487;-89
2022/03/20 04:16:05;;;;;;;58.40;29.20;;;-0.60;99.90;;;;;;5092878;28;20035;-90
2022/03/20 04:18:38;;;;;;;68.30;30.25;;;-0.60;99.90;;;;;;5074768;28;20116;-90
2022/03/20 04:21:05;;;;;;;63.03;30.60;;;-0.60;99.90;;;;;;5094263;28;20119;-89
2022/03/20 04:23:49;;;;;;;64.55;28.70;;;-0.60;99.90;;;;;;5103874;28;20015;-90
2022/03/20 04:26:17;;;;;;;63.90;30.80;;;-0.60;99.90;;;;;;5099249;28;20054;-90
2022/03/20 04:28:44;;;;;;;65.78;29.55;;;-0.60;99.90;;;;;;5098813;28;20020;-90
2022/03/20 04:31:16;;;;;;;60.17;29.08;;;-0.60;99.90;;;;;;5090061;28;20119;-89
2022/03/20 04:34:05;;;;;;;56.80;28.33;;;-0.70;99.90;;;;;;5076197;28;20067;-88
2022/03/20 04:36:31;;;;;;;52.50;27.65;;;-0.70;99.90;;;;;;5100473;28;20020;-88
2022/03/20 04:38:59;;;;;;;56.60;27.98;;;-0.70;99.90;;;;;;5075987;28;20029;-88
2022/03/20 04:41:26;;;;;;;52.83;27.98;;;-0.70;99.90;;;;;;5074614;28;20120;-89
2022/03/20 04:43:52;;;;;;;57.35;27.25;;;-0.80;99.90;;;;;;5075785;28;20039;-88
2022/03/20 04:46:20;;;;;;;60.17;27.33;;;-0.80;99.90;;;;;;5055912;28;20105;-88
2022/03/20 04:59:50;;;;;;;58.92;27.70;;;-0.90;99.90;;;;;;5055645;28;20075;-88
2022/03/20 05:03:04;;;;;;;54.47;25.50;;;-0.90;99.90;;;;;;5055460;28;20028;-88
2022/03/20 05:05:30;;;;;;;56.80;27.05;;;-0.90;99.90;;;;;;5053990;28;20131;-88
2022/03/20 05:08:01;;;;;;;49.60;25.17;;;-0.90;99.90;;;;;;5052436;28;20107;-88
2022/03/20 05:13:21;;;;;;;54.28;26.13;;;-0.90;99.90;;;;;;5075106;28;20097;-88
2022/03/20 05:15:47;;;;;;;54.47;26.42;;;-0.80;99.90;;;;;;5075078;28;20103;-88
2022/03/20 05:18:12;;;;;;;48.17;25.58;;;-0.80;99.90;;;;;;5075362;28;20071;-88
2022/03/20 05:20:51;;;;;;;46.75;22.85;;;-0.80;99.90;;;;;;5074970;28;20051;-89
2022/03/20 05:23:17;;;;;;;43.30;22.85;;;-0.70;99.90;;;;;;5074909;28;20029;-88
2022/03/20 05:26:01;;;;;;;50.75;25.40;;;-0.70;99.90;;;;;;5075066;28;20031;-87
2022/03/20 05:28:27;;;;;;;54.45;25.42;;;-0.70;99.90;;;;;;5075020;28;20025;-87
2022/03/20 05:30:52;;;;;;;46.45;23.75;;;-0.70;99.90;;;;;;5067869;28;20559;-88
2022/03/20 05:33:19;;;;;;;44.85;24.13;;;-0.70;99.90;;;;;;5055091;28;20469;-88
2022/03/20 05:35:47;;;;;;;48.17;25.30;;;-0.80;99.90;;;;;;5053191;28;20538;-88
2022/03/20 05:38:13;;;;;;;51.42;24.92;;;-0.70;99.90;;;;;;5054878;28;20024;-88
2022/03/20 05:40:42;;;;;;;57.88;28.58;;;-0.70;99.90;;;;;;5036935;28;20036;-88
2022/03/20 05:43:08;;;;;;;59.05;27.65;;;-0.60;99.90;;;;;;5054601;28;20079;-88
2022/03/20 05:45:34;;;;;;;52.45;28.13;;;-0.60;99.90;;;;;;5053526;28;20039;-88
2022/03/20 05:48:08;;;;;;;68.00;28.48;;;-0.50;99.90;;;;;;5057935;28;20021;-88
2022/03/20 05:50:34;;;;;;;57.22;27.85;;;-0.50;99.90;;;;;;5074385;28;20388;-88
2022/03/20 05:52:59;;;;;;;62.42;30.73;;;-0.40;99.90;;;;;;5074550;28;20016;-88
2022/03/20 05:58:15;;;;;;;57.67;26.77;;;-0.20;99.90;;;;;;5054345;28;20035;-88
2022/03/20 06:00:42;;;;;;;57.83;27.05;;;-0.10;99.90;;;;;;5053358;28;20120;-88
2022/03/20 06:03:09;;;;;;;48.10;23.90;;;0.10;99.90;;;;;;5052934;28;20017;-88
2022/03/20 06:05:35;;;;;;;52.05;24.10;;;0.20;99.90;;;;;;5054078;28;20028;-88
2022/03/20 06:08:13;;;;;;;55.60;25.58;;;0.20;99.90;;;;;;5054393;28;20031;-88
2022/03/20 06:10:39;;;;;;;56.08;24.80;;;0.40;99.90;;;;;;5054284;28;20029;-89
2022/03/20 06:13:05;;;;;;;61.97;27.45;;;0.50;99.90;;;;;;5053999;28;20389;-88
2022/03/20 06:15:41;;;;;;;57.30;24.85;;;0.70;99.90;;;;;;5036340;28;20053;-88
2022/03/20 06:18:07;;;;;;;58.70;25.90;;;0.80;99.90;;;;;;5070809;28;20044;-90
2022/03/20 06:20:57;;;;;;;56.88;26.60;;;0.90;99.90;;;;;;5067846;28;20529;-89
2022/03/20 06:23:23;;;;;;;54.97;24.27;;;1.00;99.90;;;;;;5053911;28;20159;-89
2022/03/20 06:25:51;;;;;;;65.45;28.05;;;1.10;99.90;;;;;;5053998;28;20059;-89
2022/03/20 06:28:22;;;;;;;57.40;25.13;;;1.10;99.90;;;;;;5053809;28;20484;-90
2022/03/20 06:30:49;;;;;;;59.20;24.13;;;1.20;99.90;;;;;;5066173;28;20043;-90
2022/03/20 06:33:16;;;;;;;67.68;26.25;;;1.30;99.90;;;;;;5075995;28;20024;-90
2022/03/20 06:35:41;;;;;;;63.97;26.10;;;1.50;99.90;;;;;;5092889;28;20086;-91
2022/03/20 06:38:10;;;;;;;46.95;22.75;;;1.60;99.90;;;;;;5076153;28;20024;-90
2022/03/20 06:40:36;;;;;;;51.15;24.75;;;1.80;99.90;;;;;;5075897;28;20472;-90
2022/03/20 06:43:01;;;;;;;57.55;25.67;;;1.80;99.90;;;;;;5075320;28;20023;-90
2022/03/20 06:46:13;;;;;;;54.97;25.73;;;1.90;99.90;;;;;;5094107;28;20028;-93
2022/03/20 06:48:39;;;;;;;46.30;23.10;;;2.00;99.90;;;;;;5092868;28;20021;-92
2022/03/20 06:51:04;;;;;;;61.38;26.17;;;2.10;99.90;;;;;;5075271;28;20020;-91
2022/03/20 06:53:59;;;;;;;53.55;25.45;;;2.10;99.90;;;;;;5085999;28;20425;-91
2022/03/20 06:56:25;;;;;;;55.80;25.42;;;2.20;99.90;;;;;;5075931;28;20043;-91
2022/03/20 06:58:50;;;;;;;52.70;24.83;;;2.30;99.90;;;;;;5085461;28;20024;-90
2022/03/20 07:01:25;;;;;;;53.63;25.88;;;2.40;99.90;;;;;;5086558;28;20025;-91
2022/03/20 07:03:51;;;;;;;51.38;24.60;;;2.40;99.90;;;;;;5093417;28;20488;-91
2022/03/20 07:06:27;;;;;;;50.38;24.35;;;2.50;99.90;;;;;;5071051;28;20048;-90
2022/03/20 07:08:58;;;;;;;55.08;24.30;;;2.60;99.90;;;;;;5070932;28;20493;-91
2022/03/20 07:11:37;;;;;;;54.20;25.25;;;2.60;99.90;;;;;;5069486;28;20024;-91
2022/03/20 07:14:03;;;;;;;54.35;25.58;;;2.70;99.90;;;;;;5092327;28;20487;-92
2022/03/20 07:16:52;;;;;;;58.30;25.15;;;2.80;99.90;;;;;;5096193;28;20031;-91
2022/03/20 07:19:18;;;;;;;50.97;24.42;;;2.80;99.90;;;;;;5075545;28;20020;-91
2022/03/20 07:21:48;;;;;;;50.63;24.13;;;2.90;99.90;;;;;;5075491;28;20032;-90
2022/03/20 07:24:14;;;;;;;54.45;24.48;;;3.00;99.90;;;;;;5093216;28;20040;-90
2022/03/20 07:29:43;;;;;;;55.25;25.75;;;3.20;99.90;;;;;;5093672;28;20039;-90
2022/03/20 07:32:09;;;;;;;57.28;24.85;;;3.20;99.90;;;;;;5074459;28;20052;-89
2022/03/20 07:34:44;;;;;;;64.15;24.65;;;3.30;99.90;;;;;;5055347;28;20128;-93
2022/03/20 07:37:09;;;;;;;59.80;24.65;;;3.40;99.90;;;;;;5071664;28;20021;-91
2022/03/20 07:40:09;;;;;;;54.22;25.48;;;3.50;99.90;;;;;;5078595;28;20027;-90
2022/03/20 07:42:35;;;;;;;53.55;23.33;;;3.60;99.90;;;;;;5082165;28;20056;-91
2022/03/20 07:45:13;;;;;;;55.28;24.15;;;3.60;99.90;;;;;;5054637;28;20051;-90
2022/03/20 07:47:39;;;;;;;54.42;24.50;;;3.60;99.90;;;;;;5072790;28;20028;-91
2022/03/20 07:50:08;;;;;;;56.10;24.88;;;3.70;99.90;;;;;;5072203;28;20016;-90
2022/03/20 07:52:38;;;;;;;47.22;24.23;;;3.80;99.90;;;;;;5083264;28;20079;-89
2022/03/20 07:55:15;;;;;;;53.05;24.75;;;3.80;99.90;;;;;;5056229;28;20036;-90
2022/03/20 07:57:44;;;;;;;51.58;23.85;;;4.00;99.90;;;;;;5076904;28;20059;-90
2022/03/20 08:03:35;;;;;;;46.92;24.60;;;4.00;99.90;;;;;;5076475;28;20040;-90
2022/03/20 08:06:01;;;;;;;49.10;24.02;;;4.20;99.90;;;;;;5076481;28;20070;-90
2022/03/20 08:09:07;;;;;;;52.65;22.13;;;4.20;99.90;;;;;;5077007;28;20021;-90
2022/03/20 08:11:35;;;;;;;45.78;22.25;;;4.30;99.90;;;;;;5076737;28;20229;-91
2022/03/20 08:14:07;;;;;;;44.03;22.50;;;4.40;99.90;;;;;;5078960;28;20035;-90
2022/03/20 08:16:39;;;;;;;49.97;22.15;;;4.60;99.90;;;;;;5095624;28;20035;-91
2022/03/20 08:19:06;;;;;;;47.70;25.05;;;4.70;99.90;;;;;;5077256;28;20024;-90
2022/03/20 08:21:34;;;;;;;50.92;24.13;;;4.80;99.90;;;;;;5064810;28;20048;-91
2022/03/20 08:24:02;;;;;;;52.20;24.10;;;4.80;99.90;;;;;;5061140;28;20024;-90
2022/03/20 08:26:31;;;;;;;51.30;24.05;;;4.90;99.90;;;;;;5076640;28;20020;-91
2022/03/20 08:29:04;;;;;;;47.85;23.95;;;5.00;99.90;;;;;;5061552;28;20055;-90
2022/03/20 08:31:34;;;;;;;46.42;22.60;;;5.10;99.90;;;;;;5096990;28;20079;-91
2022/03/20 08:34:00;;;;;;;44.38;23.05;;;5.20;99.90;;;;;;5096825;28;20030;-90
2022/03/20 08:36:26;;;;;;;49.13;22.95;;;5.30;99.90;;;;;;5106872;28;20020;-90
2022/03/20 08:39:34;;;;;;;48.03;23.52;;;5.40;99.90;;;;;;5078130;28;20056;-91
2022/03/20 08:42:00;;;;;;;47.40;23.20;;;5.50;99.90;;;;;;5095485;28;20127;-92
2022/03/20 08:45:03;;;;;;;49.90;23.13;;;5.60;99.90;;;;;;5096985;28;20511;-92
2022/03/20 08:47:35;;;;;;;44.05;21.85;;;5.70;99.90;;;;;;5095283;28;20118;-91
2022/03/20 08:50:15;;;;;;;49.58;23.30;;;5.80;97.80;;;;;;5096258;28;20484;-93
2022/03/20 08:52:44;;;;;;;38.95;21.42;;;5.90;98.50;;;;;;5078143;28;20535;-92
2022/03/20 08:55:34;;;;;;;54.20;22.80;;;6.00;96.90;;;;;;5078544;28;20024;-94
2022/03/20 08:57:59;;;;;;;43.00;22.90;;;6.10;96.80;;;;;;5078000;28;20028;-92
2022/03/20 09:01:09;;;;;;;45.63;22.63;;;6.10;96.60;;;;;;5078016;28;20051;-92
2022/03/20 09:03:34;;;;;;;54.50;22.95;;;6.30;95.80;;;;;;5077576;28;20032;-90
2022/03/20 09:06:01;;;;;;;42.90;22.02;;;6.30;95.40;;;;;;5077489;28;20497;-91
2022/03/20 09:08:27;;;;;;;42.55;20.77;;;6.40;92.90;;;;;;5095880;28;20031;-92
2022/03/20 09:11:17;;;;;;;38.35;18.73;;;6.60;87.00;;;;;;5078578;28;20027;-91
2022/03/20 09:13:43;;;;;;;38.88;20.13;;;6.60;93.80;;;;;;5094701;28;20036;-92
2022/03/20 09:19:07;;;;;;;41.70;21.65;;;6.80;92.60;;;;;;5117229;28;20034;-93
2022/03/20 09:21:36;;;;;;;39.45;21.05;;;6.90;86.10;;;;;;5097881;28;20455;-92
2022/03/20 09:24:03;;;;;;;41.10;21.55;;;6.90;89.70;;;;;;5098218;28;20019;-92
2022/03/20 09:26:31;;;;;;;42.90;22.00;;;6.90;87.60;;;;;;5115773;28;20460;-91
2022/03/20 09:28:57;;;;;;;42.25;21.55;;;6.90;91.10;;;;;;5116204;28;20041;-92
2022/03/20 09:31:23;;;;;;;40.65;21.38;;;7.00;91.30;;;;;;5102435;28;20083;-93
2022/03/20 09:37:12;;;;;;;45.60;20.42;;;7.20;88.30;;;;;;5116401;28;20136;-93
2022/03/20 09:39:38;;;;;;;42.17;19.30;;;7.30;83.20;;;;;;5116134;28;20383;-93
2022/03/20 09:42:19;;;;;;;41.08;21.27;;;7.40;79.50;;;;;;5096587;28;20028;-91
2022/03/20 09:44:45;;;;;;;43.63;20.88;;;7.50;79.20;;;;;;5095646;28;20024;-91
2022/03/20 09:47:17;;;;;;;37.60;20.88;;;7.50;75.20;;;;;;5093574;28;20032;-90
2022/03/20 09:49:44;;;;;;;42.30;20.27;;;7.50;80.30;;;;;;5077586;28;20031;-92
2022/03/20 09:52:22;;;;;;;36.80;18.83;;;7.60;72.70;;;;;;5095567;28;20499;-93
2022/03/20 09:54:48;;;;;;;38.78;19.02;;;7.80;70.40;;;;;;5081142;28;20032;-90
2022/03/20 09:57:32;;;;;;;42.47;18.40;;;7.80;67.90;;;;;;5104199;28;20035;-93
2022/03/20 10:00:04;;;;;;;38.75;18.88;;;7.90;68.50;;;;;;5094096;28;20023;-93
2022/03/20 10:02:35;;;;;;;53.35;19.60;;;8.00;65.10;;;;;;5095642;28;20488;-94
2022/03/20 10:05:04;;;;;;;37.17;18.92;;;8.10;62.30;;;;;;5077499;28;20020;-93
2022/03/20 10:08:20;;;;;;;38.42;18.65;;;8.10;59.80;;;;;;5077080;28;20415;-92
2022/03/20 10:11:12;;;;;;;38.15;19.52;;;8.10;61.00;;;;;;5064698;28;20032;-93
2022/03/20 10:13:37;;;;;;;33.97;18.77;;;8.20;62.20;;;;;;5094387;28;20495;-92
2022/03/20 10:16:28;;;;;;;39.47;19.88;;;8.30;67.00;;;;;;5076806;28;20024;-92
2022/03/20 10:18:54;;;;;;;31.27;17.33;;;8.30;66.00;;;;;;5076012;28;20071;-93
2022/03/20 10:21:45;;;;;;;47.70;24.17;;;8.40;59.30;;;;;;5076532;28;20444;-90
2022/03/20 10:24:15;;;;;;;38.53;18.00;;;8.50;58.00;;;;;;5074549;28;20025;-93
2022/03/20 10:26:41;;;;;;;38.50;18.48;;;8.60;58.80;;;;;;5074956;28;20488;-92
2022/03/20 10:29:18;;;;;;;38.30;17.73;;;8.70;59.90;;;;;;5071156;28;20084;-92
2022/03/20 10:32:09;;;;;;;29.80;15.90;;;8.80;58.20;;;;;;5076821;28;20141;-94
2022/03/20 10:34:58;;;;;;;27.30;16.17;;;8.90;57.60;;;;;;5090230;28;20027;-94
2022/03/20 10:37:52;;;;;;;32.45;16.80;;;9.00;59.10;;;;;;5114137;28;20028;-93
2022/03/20 10:40:27;;;;;;;32.08;15.68;;;9.10;58.10;;;;;;5079884;28;20111;-92
2022/03/20 10:43:25;;;;;;;32.10;16.53;;;9.20;53.40;;;;;;5076558;28;20141;-94
2022/03/20 10:46:00;;;;;;;29.38;16.80;;;9.30;55.30;;;;;;5087977;28;20039;-93
2022/03/20 10:48:42;;;;;;;32.25;17.23;;;9.30;52.30;;;;;;5094998;28;20028;-94
2022/03/20 10:54:53;;;;;;;26.67;15.27;;;9.40;51.00;;;;;;5107101;28;20031;-93
2022/03/20 10:57:20;;;;;;;28.10;14.80;;;9.40;48.40;;;;;;5076368;28;20031;-93
2022/03/20 11:00:14;;;;;;;31.20;14.90;;;9.50;49.10;;;;;;5076760;28;20028;-94
2022/03/20 11:02:40;;;;;;;26.40;13.82;;;9.60;47.60;;;;;;5092944;28;20024;-94
2022/03/20 11:06:02;;;;;;;33.10;15.57;;;9.50;46.70;;;;;;5076126;28;20031;-93
2022/03/20 11:08:32;;;;;;;26.35;15.35;;;9.50;46.40;;;;;;5076697;28;20066;-93
2022/03/20 11:11:10;;;;;;;26.88;14.52;;;9.60;47.80;;;;;;5093222;28;20063;-94
2022/03/20 11:13:38;;;;;;;33.13;14.60;;;9.60;46.50;;;;;;5085054;28;20430;-93
2022/03/20 11:16:13;;;;;;;28.73;14.80;;;9.60;46.60;;;;;;5106505;28;20066;-94
2022/03/20 11:18:39;;;;;;;27.15;13.95;;;9.70;46.30;;;;;;5095648;28;20023;-94
2022/03/20 11:21:34;;;;;;;35.92;14.88;;;9.70;46.50;;;;;;5111310;28;20024;-93
2022/03/20 11:24:02;;;;;;;27.17;15.30;;;9.70;46.70;;;;;;5092355;28;20498;-93
2022/03/20 11:30:06;;;;;;;30.42;15.63;;;9.90;46.30;;;;;;5109942;28;20094;-93
2022/03/20 11:36:19;;;;;;;26.02;14.93;;;10.00;46.10;;;;;;5094003;28;20494;-92
2022/03/20 11:42:23;;;;;;;30.52;15.07;;;10.10;47.30;;;;;;5071928;28;20055;-94
2022/03/20 11:45:04;;;;;;;41.67;14.40;;;10.20;45.90;;;;;;5092214;28;20028;-93
2022/03/20 11:47:37;;;;;;;34.70;15.23;;;10.10;45.10;;;;;;5092559;28;20035;-93
2022/03/20 11:50:24;;;;;;;30.48;14.57;;;10.10;46.60;;;;;;5075196;28;20024;-90
2022/03/20 11:53:25;;;;;;;39.60;14.57;;;10.10;44.50;;;;;;5075922;28;20016;-94
2022/03/20 11:55:51;;;;;;;28.42;14.43;;;10.00;45.10;;;;;;5075786;28;20028;-92
2022/03/20 11:58:16;;;;;;;29.45;15.93;;;10.10;45.70;;;;;;5093573;28;20024;-92
2022/03/20 12:01:19;;;;;;;33.58;15.98;;;10.20;45.80;;;;;;5093619;28;20020;-93
2022/03/20 12:03:55;;;;;;;34.28;15.68;;;10.30;46.30;;;;;;5092005;28;20024;-94
2022/03/20 12:10:13;;;;;;;35.42;14.23;;;10.50;45.40;;;;;;5093968;28;20039;-89
2022/03/20 12:16:46;;;;;;;33.30;13.80;;;10.50;45.10;;;;;;5093256;28;20070;-93
2022/03/20 12:19:14;;;;;;;25.27;13.55;;;10.60;44.80;;;;;;5074850;28;20024;-93
2022/03/20 12:22:10;;;;;;;27.38;14.35;;;10.70;44.40;;;;;;5075015;28;20066;-95
2022/03/20 12:24:39;;;;;;;32.28;14.00;;;10.80;45.10;;;;;;5091962;28;20024;-93
2022/03/20 12:27:42;;;;;;;121.90;17.83;;;10.90;44.40;;;;;;5092158;28;20052;-93
2022/03/20 12:30:14;;;;;;;27.55;12.82;;;11.10;44.10;;;;;;5093224;28;20133;-94
2022/03/20 12:32:58;;;;;;;22.17;12.63;;;11.20;43.80;;;;;;5088340;28;20037;-93
2022/03/20 12:35:42;;;;;;;27.35;13.82;;;11.20;43.50;;;;;;5088740;28;20054;-94
2022/03/20 12:38:37;;;;;;;23.38;12.43;;;11.30;42.50;;;;;;5071988;28;20024;-94
2022/03/20 12:41:08;;;;;;;27.88;12.80;;;11.40;41.20;;;;;;5073142;28;20024;-94
2022/03/20 12:44:07;;;;;;;24.05;12.05;;;11.40;40.40;;;;;;5075611;28;20131;-94
2022/03/20 12:46:37;;;;;;;23.40;11.35;;;11.50;41.00;;;;;;5075714;28;20028;-94
2022/03/20 12:49:17;;;;;;;21.00;12.65;;;11.60;40.60;;;;;;5075433;28;20024;-93
2022/03/20 12:51:46;;;;;;;23.33;11.73;;;11.60;40.30;;;;;;5091876;28;20029;-95
2022/03/20 12:54:16;;;;;;;35.25;12.55;;;11.70;41.30;;;;;;5076623;28;20115;-94
2022/03/20 12:56:52;;;;;;;33.90;12.60;;;11.80;40.70;;;;;;5075161;28;20029;-94
2022/03/20 12:59:25;;;;;;;21.73;11.65;;;11.80;40.20;;;;;;5075331;28;20032;-94
2022/03/20 13:01:52;;;;;;;26.77;12.75;;;11.90;39.80;;;;;;5058358;28;20043;-94
2022/03/20 13:04:24;;;;;;;25.02;12.00;;;12.00;39.00;;;;;;5058115;28;20025;-93
2022/03/20 13:06:50;;;;;;;24.05;11.82;;;12.00;38.80;;;;;;5058611;28;20024;-94
2022/03/20 13:10:11;;;;;;;23.67;11.57;;;12.00;39.10;;;;;;5058569;28;20495;-94
2022/03/20 13:13:12;;;;;;;18.65;11.00;;;12.00;38.60;;;;;;5036057;28;20033;-94
2022/03/20 13:15:40;;;;;;;25.52;11.43;;;12.10;38.40;;;;;;5091718;28;20094;-94
2022/03/20 13:18:08;;;;;;;22.27;11.25;;;12.10;38.90;;;;;;5091721;28;20025;-91
2022/03/20 13:20:37;;;;;;;19.98;11.07;;;12.20;38.70;;;;;;5075318;28;20028;-93
2022/03/20 13:23:17;;;;;;;26.35;11.60;;;12.20;39.10;;;;;;5074755;28;20052;-93
2022/03/20 13:25:45;;;;;;;21.80;10.55;;;12.20;38.20;;;;;;5074270;28;20024;-94
2022/03/20 13:28:31;;;;;;;29.05;11.98;;;12.30;38.00;;;;;;5075929;28;20468;-92
2022/03/20 13:30:58;;;;;;;;;;;12.40;38.00;;;;;;5075169;28;20034;-94
2022/03/20 13:33:37;;;;;;;19.88;11.55;;;12.40;37.40;;;;;;5091316;28;19920;-94
2022/03/20 13:36:08;;;;;;;27.70;12.23;;;12.40;38.00;;;;;;5075660;28;20472;-94
2022/03/20 13:38:45;;;;;;;22.35;11.82;;;12.50;37.90;;;;;;5057449;28;20078;-94
2022/03/20 13:41:19;;;;;;;19.88;10.85;;;12.50;35.80;;;;;;5057561;28;20035;-94
2022/03/20 13:44:04;;;;;;;23.05;11.82;;;12.60;36.60;;;;;;5054684;28;20060;-93
2022/03/20 13:46:36;;;;;;;20.05;11.20;;;12.70;36.80;;;;;;5037391;28;20027;-94
2022/03/20 13:49:10;;;;;;;19.05;10.98;;;12.70;37.00;;;;;;5054255;28;20112;-95
2022/03/20 13:51:37;;;;;;;25.63;11.20;;;12.70;36.80;;;;;;5053628;28;20017;-94
2022/03/20 13:54:50;;;;;;;25.88;11.43;;;12.70;37.50;;;;;;5036488;28;20477;-94
2022/03/20 13:57:16;;;;;;;20.65;11.07;;;12.80;37.50;;;;;;5037529;28;20362;-94
2022/03/20 14:00:04;;;;;;;19.13;11.20;;;12.90;36.90;;;;;;5053758;28;20032;-93
2022/03/20 14:02:46;;;;;;;20.80;11.43;;;12.90;36.80;;;;;;5053723;28;20112;-94
2022/03/20 14:05:21;;;;;;;22.33;11.50;;;12.90;36.60;;;;;;5057390;28;20021;-95
2022/03/20 14:07:47;;;;;;;21.73;11.18;;;12.90;36.90;;;;;;5057115;28;20021;-93
2022/03/20 14:11:05;;;;;;;24.20;11.90;;;13.00;36.70;;;;;;5073763;28;20201;-93
2022/03/20 14:13:44;;;;;;;23.08;12.02;;;13.00;37.50;;;;;;5090529;28;20031;-93